Ana Sayfa
METAR-TAF:

METAR-TAF

Havaalanları :

Bangui, Orta Afrika Cumhuriyeti

Bangui M'Poko Uluslararası Havalimanı

Enlem: 04-24N, Boylam: 018-31E, yükseklik: 365 m

Güncel hava durumu gözlemi

Rapor saat 01:00 UTC de 1 saat ve 7 dakika önce yapıldı.
Sakin rüzgar
Sıcaklık 25°C
Nem 89%
Basınç 1010 hPa
Görüş mesafesi 10 km veya daha fazla
1500 m altında bulut yok ve kümülonimbus yok

METAR: FEFF 260100Z 00000KT CAVOK 25/23 Q1010 NOSIG

Saat: 03:07 (02:07 UTC)


TAF: eksik

4.000'den fazla havaalanı için hava durumu gözlemleri ve tahminleri (METAR ve TAF raporları).

Kullanılabilir istasyonlar harita üzerinde sarı ve kırmızı noktalarla gösterilir.

İstasyonun adını görmek için fareyi noktanın üzerinde gezdirin.

Sonrasında hava gözlem ve tahminlerini görmek için tıklayın.

Haritayı değiştirmek için: yaklaştırmak için siyah artı işaretli yeşil düğmeye ve uzaklaştırmak için de eksi işaretli düğmeye hızla tıklayın; bitişik haritalar için yeşil okları kullanın.


METAR-TAF: